Time;durP1;ratioP1;P1;durP2;ratioP2;P2;SDS_P1;SDS_P2;PMS_P1;PMS_P2;Temp;Humidity;BMP_temperature;BMP_pressure;BME280_temperature;BME280_humidity;BME280_pressure;Samples;Min_cycle;Max_cycle;Signal;HPM_P1;HPM_P2
2022/04/09 00:00:46;;;;;;;10.13;1.92;;;3.90;99.90;;;;;;5007861;28;20042;-66
2022/04/09 00:03:12;;;;;;;7.68;1.80;;;3.90;99.90;;;;;;5006119;28;20046;-66
2022/04/09 00:05:38;;;;;;;6.88;1.90;;;3.90;99.90;;;;;;4998037;28;20038;-66
2022/04/09 00:08:04;;;;;;;11.95;2.03;;;3.90;99.90;;;;;;4997373;28;20034;-66
2022/04/09 00:10:29;;;;;;;6.85;2.05;;;3.90;99.90;;;;;;5013072;28;20085;-66
2022/04/09 00:12:58;;;;;;;8.20;1.77;;;3.90;99.90;;;;;;5009739;28;20080;-67
2022/04/09 00:15:24;;;;;;;10.63;2.50;;;3.90;99.90;;;;;;5006507;28;20042;-65
2022/04/09 00:17:50;;;;;;;9.48;1.75;;;3.90;99.90;;;;;;5005171;28;20118;-66
2022/04/09 00:20:17;;;;;;;9.45;2.15;;;4.00;99.90;;;;;;5004061;28;20041;-66
2022/04/09 00:22:44;;;;;;;11.45;2.35;;;4.00;99.90;;;;;;5002657;28;20040;-65
2022/04/09 00:25:13;;;;;;;14.52;2.60;;;4.00;99.90;;;;;;4993526;28;20045;-67
2022/04/09 00:27:39;;;;;;;10.20;2.20;;;4.10;99.90;;;;;;5005356;28;20049;-67
2022/04/09 00:30:07;;;;;;;16.35;3.28;;;4.10;99.90;;;;;;5004606;28;20053;-66
2022/04/09 00:32:33;;;;;;;13.50;2.42;;;4.10;99.90;;;;;;5005306;28;20112;-66
2022/04/09 00:34:59;;;;;;;17.13;3.03;;;4.10;99.90;;;;;;5002093;28;20056;-66
2022/04/09 00:37:27;;;;;;;11.48;2.67;;;4.10;99.90;;;;;;5000930;28;20071;-65
2022/04/09 00:39:53;;;;;;;11.10;2.15;;;4.10;99.90;;;;;;5006466;28;20042;-66
2022/04/09 00:42:18;;;;;;;14.45;2.35;;;4.10;99.90;;;;;;4998537;28;20099;-66
2022/04/09 00:44:44;;;;;;;16.17;2.40;;;4.10;99.90;;;;;;5008398;28;20042;-67
2022/04/09 00:47:11;;;;;;;15.00;2.28;;;4.10;99.90;;;;;;5002065;28;20042;-66
2022/04/09 00:49:39;;;;;;;8.52;1.80;;;4.00;99.90;;;;;;5006097;28;20171;-67
2022/04/09 00:52:08;;;;;;;6.28;1.77;;;4.40;99.90;;;;;;4996149;28;20046;-65
2022/04/09 00:54:38;;;;;;;12.65;2.78;;;4.00;99.90;;;;;;5011856;28;20701;-66
2022/04/09 00:57:06;;;;;;;14.30;2.72;;;4.00;99.90;;;;;;5021707;28;20080;-66
2022/04/09 00:59:35;;;;;;;13.15;2.15;;;3.90;99.90;;;;;;5019625;28;20042;-67
2022/04/09 01:02:01;;;;;;;11.88;2.30;;;3.90;99.90;;;;;;4999138;28;20112;-66
2022/04/09 01:04:27;;;;;;;9.93;2.08;;;3.90;99.90;;;;;;5006707;28;20116;-67
2022/04/09 01:06:55;;;;;;;14.25;2.10;;;3.90;99.90;;;;;;5004267;28;20049;-66
2022/04/09 01:09:21;;;;;;;14.07;2.35;;;3.90;99.90;;;;;;4996859;28;20039;-65
2022/04/09 01:11:46;;;;;;;11.45;2.05;;;3.90;99.90;;;;;;4998249;28;20120;-66
2022/04/09 01:14:13;;;;;;;14.77;2.20;;;3.90;99.90;;;;;;5007876;28;20412;-66
2022/04/09 01:16:39;;;;;;;13.32;2.40;;;3.90;99.90;;;;;;4996952;28;20085;-66
2022/04/09 01:19:05;;;;;;;14.23;2.53;;;3.90;99.90;;;;;;5007398;28;20041;-67
2022/04/09 01:21:31;;;;;;;11.18;2.20;;;4.00;99.90;;;;;;5001217;28;20038;-66
2022/04/09 01:23:57;;;;;;;11.48;2.58;;;4.00;99.90;;;;;;5001062;28;20082;-66
2022/04/09 01:26:26;;;;;;;;;;;4.00;99.90;;;;;;5005084;28;20507;-66
2022/04/09 01:28:52;;;;;;;12.57;2.30;;;3.90;99.90;;;;;;5001336;28;19929;-66
2022/04/09 01:31:18;;;;;;;9.68;2.00;;;3.90;99.90;;;;;;5000049;28;20412;-68
2022/04/09 01:33:44;;;;;;;7.85;2.30;;;3.80;99.90;;;;;;5001226;28;20127;-65
2022/04/09 01:36:10;;;;;;;10.07;2.15;;;3.80;99.90;;;;;;4998371;28;20073;-65
2022/04/09 01:38:37;;;;;;;14.95;2.50;;;3.70;99.90;;;;;;4991698;28;20507;-68
2022/04/09 01:41:03;;;;;;;14.10;2.47;;;3.70;99.90;;;;;;5022290;28;20077;-66
2022/04/09 01:43:29;;;;;;;9.30;1.63;;;3.70;99.90;;;;;;5000585;28;20149;-66
2022/04/09 01:45:55;;;;;;;15.85;2.05;;;3.60;99.90;;;;;;5016103;28;20146;-65
2022/04/09 01:48:21;;;;;;;9.73;2.08;;;3.60;99.90;;;;;;4999291;28;20165;-67
2022/04/09 01:50:47;;;;;;;10.88;2.05;;;3.60;99.90;;;;;;5001945;28;20089;-66
2022/04/09 01:53:13;;;;;;;11.23;2.03;;;3.60;99.90;;;;;;4998194;28;20038;-66
2022/04/09 01:55:39;;;;;;;16.38;2.08;;;3.70;99.90;;;;;;4997661;28;20592;-66
2022/04/09 01:58:05;;;;;;;12.50;3.08;;;3.70;99.90;;;;;;5011753;28;20547;-66
2022/04/09 02:00:31;;;;;;;11.18;2.20;;;3.70;99.90;;;;;;5020386;28;20034;-66
2022/04/09 02:02:56;;;;;;;11.40;2.08;;;3.80;99.90;;;;;;5006018;28;20037;-66
2022/04/09 02:05:23;;;;;;;9.20;1.90;;;3.90;99.90;;;;;;4998709;28;20046;-67
2022/04/09 02:07:49;;;;;;;10.23;1.95;;;3.90;99.90;;;;;;5005330;28;20519;-66
2022/04/09 02:10:16;;;;;;;11.75;2.30;;;3.90;99.90;;;;;;5003394;28;20042;-67
2022/04/09 02:12:43;;;;;;;12.52;1.80;;;3.90;99.90;;;;;;4996803;28;20046;-65
2022/04/09 02:15:10;;;;;;;13.00;2.38;;;3.90;99.90;;;;;;5002143;28;20066;-65
2022/04/09 02:17:38;;;;;;;15.65;2.10;;;3.80;99.90;;;;;;4994529;28;20053;-66
2022/04/09 02:20:08;;;;;;;11.20;1.85;;;3.80;99.90;;;;;;5009580;28;20030;-67
2022/04/09 02:22:35;;;;;;;8.38;1.75;;;3.70;99.90;;;;;;5004564;28;20057;-66
2022/04/09 02:25:02;;;;;;;11.32;2.15;;;3.70;99.90;;;;;;5006377;28;20044;-66
2022/04/09 02:27:28;;;;;;;12.43;1.85;;;3.60;99.90;;;;;;4999647;28;20044;-66
2022/04/09 02:29:54;;;;;;;12.75;2.10;;;3.60;99.90;;;;;;5010345;28;20038;-65
2022/04/09 02:32:19;;;;;;;12.13;2.40;;;3.50;99.90;;;;;;5007911;28;20095;-67
2022/04/09 02:34:45;;;;;;;14.27;2.58;;;3.50;99.90;;;;;;4998022;28;20038;-66
2022/04/09 02:37:11;;;;;;;12.32;3.10;;;3.60;99.90;;;;;;5000889;28;20109;-67
2022/04/09 02:39:37;;;;;;;11.30;1.83;;;3.70;99.90;;;;;;5006002;28;20120;-67
2022/04/09 02:42:02;;;;;;;7.28;1.83;;;3.70;99.90;;;;;;5009666;28;20050;-67
2022/04/09 02:44:29;;;;;;;8.65;1.98;;;3.70;99.90;;;;;;5017863;28;20055;-68
2022/04/09 02:46:55;;;;;;;7.72;1.90;;;3.70;99.90;;;;;;5006435;28;20107;-66
2022/04/09 02:49:20;;;;;;;6.93;1.70;;;3.70;99.90;;;;;;4994549;28;20050;-66
2022/04/09 02:51:46;;;;;;;12.73;2.25;;;3.60;99.90;;;;;;4996493;28;20468;-66
2022/04/09 02:54:16;;;;;;;8.70;2.10;;;3.50;99.90;;;;;;5005134;28;20129;-65
2022/04/09 02:56:46;;;;;;;6.38;1.73;;;3.50;99.90;;;;;;5005496;28;20061;-65
2022/04/09 02:59:13;;;;;;;5.45;1.40;;;3.50;99.90;;;;;;5008609;28;20096;-67
2022/04/09 03:01:40;;;;;;;4.60;1.67;;;3.50;99.90;;;;;;4998096;28;20050;-69
2022/04/09 03:04:06;;;;;;;5.93;1.45;;;3.40;99.90;;;;;;5014199;28;20057;-67
2022/04/09 03:06:32;;;;;;;6.93;1.85;;;3.40;99.90;;;;;;5003579;28;20046;-67
2022/04/09 03:08:58;;;;;;;9.35;1.98;;;3.40;99.90;;;;;;5010186;28;20133;-66
2022/04/09 03:11:24;;;;;;;5.75;1.50;;;3.40;99.90;;;;;;5023281;28;20538;-66
2022/04/09 03:13:49;;;;;;;8.65;2.65;;;3.90;99.90;;;;;;5002389;28;20096;-67
2022/04/09 03:16:15;;;;;;;12.90;2.38;;;3.40;99.90;;;;;;5010054;28;20060;-66
2022/04/09 03:18:40;;;;;;;10.30;2.05;;;3.50;99.90;;;;;;5010251;28;20077;-66
2022/04/09 03:21:06;;;;;;;12.85;2.38;;;3.50;99.90;;;;;;5003794;28;20494;-66
2022/04/09 03:23:32;;;;;;;8.38;2.53;;;3.40;99.90;;;;;;5013213;28;20064;-67
2022/04/09 03:25:58;;;;;;;6.78;2.47;;;3.40;99.90;;;;;;5002593;28;20038;-67
2022/04/09 03:28:24;;;;;;;8.93;1.73;;;3.50;99.90;;;;;;5012089;28;20054;-65
2022/04/09 03:30:50;;;;;;;9.48;2.20;;;3.40;99.90;;;;;;5006927;28;20089;-65
2022/04/09 03:33:16;;;;;;;12.40;2.38;;;3.40;99.90;;;;;;5009807;28;20042;-66
2022/04/09 03:35:42;;;;;;;11.38;2.03;;;3.40;99.90;;;;;;5002633;28;20113;-66
2022/04/09 03:38:11;;;;;;;11.93;2.60;;;3.40;99.90;;;;;;5004737;28;20045;-65
2022/04/09 03:40:40;;;;;;;12.05;2.03;;;3.70;99.90;;;;;;5007078;28;20046;-66
2022/04/09 03:43:06;;;;;;;12.27;2.20;;;3.40;99.90;;;;;;5003653;28;20041;-67
2022/04/09 03:45:32;;;;;;;10.63;1.77;;;3.40;99.90;;;;;;5004063;28;20038;-66
2022/04/09 03:47:58;;;;;;;7.30;1.75;;;3.50;99.90;;;;;;4987499;28;20041;-66
2022/04/09 03:50:23;;;;;;;6.55;1.90;;;3.40;99.90;;;;;;4995905;28;20046;-66
2022/04/09 03:52:49;;;;;;;11.23;1.95;;;3.40;99.90;;;;;;4997222;28;20100;-67
2022/04/09 03:55:15;;;;;;;10.93;2.15;;;3.40;99.90;;;;;;5003140;28;20117;-66
2022/04/09 03:57:41;;;;;;;14.80;2.17;;;3.40;99.90;;;;;;5000196;28;20050;-66
2022/04/09 04:00:10;;;;;;;8.90;2.42;;;3.40;99.90;;;;;;5004879;28;20038;-66
2022/04/09 04:02:36;;;;;;;7.18;1.75;;;3.40;99.90;;;;;;5010001;28;20077;-67
2022/04/09 04:05:03;;;;;;;11.02;2.25;;;3.30;99.90;;;;;;5006106;28;20042;-66
2022/04/09 04:07:33;;;;;;;14.77;2.53;;;3.30;99.90;;;;;;5004547;28;20050;-67
2022/04/09 04:10:10;;;;;;;15.38;2.85;;;3.30;99.90;;;;;;5005242;28;20052;-66
2022/04/09 04:12:36;;;;;;;11.23;2.15;;;3.30;99.90;;;;;;5016800;28;20499;-66
2022/04/09 04:15:03;;;;;;;14.43;2.47;;;3.30;99.90;;;;;;5012595;28;20034;-66
2022/04/09 04:17:39;;;;;;;10.13;2.33;;;3.40;99.90;;;;;;5009341;28;20049;-66
2022/04/09 04:20:05;;;;;;;17.75;2.30;;;3.40;99.90;;;;;;5010942;28;20042;-67
2022/04/09 04:22:30;;;;;;;12.73;2.15;;;3.50;99.90;;;;;;5004615;28;20041;-66
2022/04/09 04:24:56;;;;;;;10.32;2.58;;;3.50;99.90;;;;;;5001567;28;20050;-66
2022/04/09 04:27:22;;;;;;;12.52;2.10;;;3.50;99.90;;;;;;5024748;28;20423;-67
2022/04/09 04:29:47;;;;;;;13.10;2.10;;;5.10;99.90;;;;;;5002926;28;20201;-67
2022/04/09 04:32:13;;;;;;;18.30;2.53;;;3.60;99.90;;;;;;5005833;28;20047;-67
2022/04/09 04:34:39;;;;;;;13.60;3.05;;;3.40;99.90;;;;;;5005577;28;20085;-66
2022/04/09 04:37:04;;;;;;;13.93;2.03;;;3.30;99.90;;;;;;5000601;28;20050;-68
2022/04/09 04:39:30;;;;;;;16.48;2.00;;;3.30;99.90;;;;;;5004700;28;20043;-67
2022/04/09 04:41:55;;;;;;;9.98;2.20;;;3.20;99.90;;;;;;5005594;28;20042;-66
2022/04/09 04:44:21;;;;;;;9.18;2.10;;;3.30;99.90;;;;;;5004468;28;20503;-67
2022/04/09 04:46:47;;;;;;;7.20;1.70;;;3.20;99.90;;;;;;5002061;28;20045;-67
2022/04/09 04:49:12;;;;;;;8.90;2.30;;;3.20;99.90;;;;;;5001098;28;20125;-67
2022/04/09 04:51:38;;;;;;;10.05;2.28;;;3.20;99.90;;;;;;5009880;28;20140;-66
2022/04/09 04:54:05;;;;;;;13.13;3.05;;;3.20;99.90;;;;;;5011682;28;20034;-67
2022/04/09 04:56:31;;;;;;;17.48;3.17;;;3.10;99.90;;;;;;5019761;28;20082;-67
2022/04/09 04:58:56;;;;;;;11.23;2.05;;;3.10;99.90;;;;;;5009249;28;20566;-66
2022/04/09 05:01:22;;;;;;;20.77;3.17;;;3.10;99.90;;;;;;4999969;28;20034;-66
2022/04/09 05:03:47;;;;;;;12.95;1.90;;;3.10;99.90;;;;;;5013386;28;20030;-66
2022/04/09 05:06:13;;;;;;;14.85;2.40;;;3.10;99.90;;;;;;5009883;28;20399;-67
2022/04/09 05:08:40;;;;;;;10.98;2.42;;;3.00;99.90;;;;;;4998150;28;20069;-67
2022/04/09 05:11:06;;;;;;;6.55;2.15;;;3.10;99.90;;;;;;5002113;28;20056;-68
2022/04/09 05:13:31;;;;;;;6.80;1.90;;;3.10;99.90;;;;;;5004159;28;20042;-67
2022/04/09 05:15:58;;;;;;;14.13;2.60;;;3.20;99.90;;;;;;5005296;28;20049;-67
2022/04/09 05:18:24;;;;;;;12.32;2.40;;;3.10;99.90;;;;;;5005462;28;20101;-67
2022/04/09 05:20:52;;;;;;;20.88;2.50;;;3.10;99.90;;;;;;5009791;28;20329;-69
2022/04/09 05:23:17;;;;;;;19.88;2.78;;;3.10;99.90;;;;;;5005320;28;20045;-66
2022/04/09 05:25:43;;;;;;;11.93;2.53;;;3.20;99.90;;;;;;4997434;28;20049;-66
2022/04/09 05:28:08;;;;;;;28.98;2.83;;;3.30;99.90;;;;;;5001448;28;20370;-66
2022/04/09 05:30:35;;;;;;;9.82;2.50;;;3.30;99.90;;;;;;5006734;28;20177;-67
2022/04/09 05:33:01;;;;;;;13.07;2.30;;;3.40;99.90;;;;;;5007160;28;20427;-66
2022/04/09 05:35:27;;;;;;;8.57;2.28;;;3.40;99.90;;;;;;5000252;28;20046;-65
2022/04/09 05:37:53;;;;;;;13.75;2.58;;;3.90;99.90;;;;;;5006597;28;20046;-67
2022/04/09 05:40:19;;;;;;;13.23;2.33;;;3.60;99.90;;;;;;4998446;28;20129;-66
2022/04/09 05:42:45;;;;;;;13.68;2.30;;;3.70;99.90;;;;;;5002265;28;20048;-66
2022/04/09 05:45:12;;;;;;;17.05;2.78;;;3.70;99.90;;;;;;4997685;28;20405;-67
2022/04/09 05:47:46;;;;;;;14.68;2.10;;;3.80;99.90;;;;;;4996992;28;20117;-68
2022/04/09 05:50:13;;;;;;;20.27;2.70;;;3.80;99.90;;;;;;4996555;28;20444;-67
2022/04/09 05:52:39;;;;;;;15.50;2.38;;;3.80;99.90;;;;;;4999383;28;20042;-68
2022/04/09 05:55:06;;;;;;;11.57;2.22;;;3.30;99.90;;;;;;4997250;28;20096;-66
2022/04/09 05:57:32;;;;;;;15.23;2.38;;;3.80;99.90;;;;;;5003913;28;20499;-67
2022/04/09 05:59:58;;;;;;;12.77;2.55;;;3.70;99.90;;;;;;4994172;28;20069;-67
2022/04/09 06:02:24;;;;;;;8.90;1.70;;;3.70;99.90;;;;;;5008778;28;20195;-68
2022/04/09 06:04:50;;;;;;;8.45;2.15;;;3.80;99.90;;;;;;5006058;28;20527;-69
2022/04/09 06:07:15;;;;;;;15.45;2.33;;;3.90;99.90;;;;;;5011614;28;20038;-67
2022/04/09 06:09:46;;;;;;;8.98;2.10;;;4.20;99.90;;;;;;5009223;28;20046;-67
2022/04/09 06:12:12;;;;;;;14.32;2.15;;;4.40;99.90;;;;;;5004710;28;20053;-68
2022/04/09 06:14:38;;;;;;;8.18;2.15;;;4.50;99.90;;;;;;5009474;28;20471;-67
2022/04/09 06:17:04;;;;;;;8.25;1.73;;;4.40;99.90;;;;;;5011136;28;20360;-67
2022/04/09 06:19:31;;;;;;;8.55;2.03;;;4.40;99.90;;;;;;5011428;28;20534;-67
2022/04/09 06:21:57;;;;;;;11.85;1.70;;;4.30;99.90;;;;;;5009600;28;20120;-68
2022/04/09 06:24:22;;;;;;;11.68;1.98;;;4.40;99.90;;;;;;5005639;28;20432;-67
2022/04/09 06:26:48;;;;;;;9.93;1.85;;;4.20;99.90;;;;;;5009021;28;20042;-68
2022/04/09 06:29:14;;;;;;;17.80;2.55;;;4.10;99.90;;;;;;5003414;28;20462;-68
2022/04/09 06:31:39;;;;;;;14.77;2.83;;;4.20;99.90;;;;;;4996329;28;20077;-68
2022/04/09 06:34:05;;;;;;;12.55;2.60;;;4.20;99.90;;;;;;5000565;28;20391;-67
2022/04/09 06:36:30;;;;;;;17.80;2.92;;;4.20;99.90;;;;;;5008923;28;20058;-67
2022/04/09 06:38:56;;;;;;;11.98;2.80;;;4.60;99.90;;;;;;5009641;28;20129;-69
2022/04/09 06:41:22;;;;;;;15.20;2.97;;;5.10;99.90;;;;;;4995781;28;20053;-67
2022/04/09 06:43:48;;;;;;;16.75;2.63;;;5.70;99.90;;;;;;5008797;28;20395;-67
2022/04/09 06:46:15;;;;;;;17.00;3.08;;;6.00;99.90;;;;;;5001108;28;20430;-68
2022/04/09 06:48:41;;;;;;;9.52;2.35;;;6.00;99.90;;;;;;4994549;28;20039;-67
2022/04/09 06:51:06;;;;;;;15.27;2.78;;;5.80;99.90;;;;;;5005830;28;20050;-66
2022/04/09 06:53:32;;;;;;;10.95;2.60;;;5.70;99.90;;;;;;5000243;28;20045;-66
2022/04/09 06:55:58;;;;;;;16.15;2.85;;;5.50;99.90;;;;;;5001895;28;20038;-66
2022/04/09 06:58:23;;;;;;;23.05;3.03;;;6.80;99.90;;;;;;5003181;28;20030;-67
2022/04/09 07:00:49;;;;;;;17.27;2.38;;;5.40;99.90;;;;;;5011207;28;20048;-67
2022/04/09 07:03:14;;;;;;;11.90;3.28;;;5.20;99.90;;;;;;5005674;28;20417;-67
2022/04/09 07:05:41;;;;;;;15.73;2.97;;;5.50;99.90;;;;;;5003713;28;20030;-68
2022/04/09 07:08:08;;;;;;;15.45;2.42;;;5.80;99.90;;;;;;5004101;28;20488;-68
2022/04/09 07:10:36;;;;;;;13.60;2.80;;;6.20;99.90;;;;;;5026064;28;20092;-67
2022/04/09 07:13:02;;;;;;;12.73;2.35;;;6.40;99.90;;;;;;5011948;28;20199;-68
2022/04/09 07:15:28;;;;;;;14.88;2.60;;;6.40;99.90;;;;;;5001398;28;20125;-68
2022/04/09 07:17:55;;;;;;;12.88;2.50;;;6.30;99.90;;;;;;5002511;28;20053;-68
2022/04/09 07:20:21;;;;;;;18.03;2.93;;;6.10;99.90;;;;;;4998195;28;20515;-70
2022/04/09 07:22:47;;;;;;;12.20;2.30;;;6.10;99.90;;;;;;5010406;28;20648;-67
2022/04/09 07:25:16;;;;;;;10.07;2.50;;;6.00;99.90;;;;;;5011083;28;20038;-67
2022/04/09 07:27:49;;;;;;;11.40;2.45;;;6.10;99.90;;;;;;5010713;28;20046;-67
2022/04/09 07:30:20;;;;;;;12.68;2.30;;;6.20;99.90;;;;;;5014969;28;20030;-70
2022/04/09 07:32:47;;;;;;;19.73;3.28;;;6.40;99.90;;;;;;5010692;28;20054;-68
2022/04/09 07:35:14;;;;;;;17.75;2.22;;;6.60;99.90;;;;;;5010054;28;20495;-68
2022/04/09 07:37:50;;;;;;;18.08;2.30;;;6.80;99.90;;;;;;5004399;28;20055;-67
2022/04/09 07:40:17;;;;;;;13.57;2.13;;;6.80;99.90;;;;;;5012796;28;20046;-66
2022/04/09 07:42:44;;;;;;;10.38;1.98;;;6.90;99.90;;;;;;5013471;28;20117;-67
2022/04/09 07:45:11;;;;;;;13.82;2.05;;;7.40;99.90;;;;;;5012970;28;20067;-67
2022/04/09 07:47:36;;;;;;;16.17;2.63;;;7.20;99.90;;;;;;5007120;28;20045;-69
2022/04/09 07:50:09;;;;;;;14.35;2.00;;;7.30;99.90;;;;;;5013906;28;20056;-67
2022/04/09 07:52:34;;;;;;;15.88;2.00;;;7.50;99.90;;;;;;5013639;28;20041;-67
2022/04/09 07:55:00;;;;;;;15.73;1.88;;;7.50;99.90;;;;;;5014778;28;20041;-69
2022/04/09 07:57:27;;;;;;;10.77;1.90;;;8.50;99.90;;;;;;5015260;28;20129;-66
2022/04/09 07:59:55;;;;;;;11.82;2.63;;;7.70;99.90;;;;;;5013374;28;20049;-67
2022/04/09 08:02:25;;;;;;;18.85;3.30;;;7.80;99.90;;;;;;4996271;28;20042;-67
2022/04/09 08:04:51;;;;;;;16.30;2.67;;;7.80;99.90;;;;;;4995045;28;20164;-67
2022/04/09 08:07:17;;;;;;;10.10;2.08;;;8.00;99.90;;;;;;5015882;28;20053;-68
2022/04/09 08:09:44;;;;;;;18.02;2.33;;;8.10;99.90;;;;;;5015036;28;20072;-67
2022/04/09 08:12:12;;;;;;;23.08;2.67;;;8.20;99.90;;;;;;5007913;28;20373;-67
2022/04/09 08:14:38;;;;;;;;;;;8.30;99.90;;;;;;5005970;28;20077;-67
2022/04/09 08:17:04;;;;;;;15.27;3.45;;;8.10;99.90;;;;;;5014690;28;19948;-67
2022/04/09 08:19:34;;;;;;;19.02;3.15;;;8.10;99.90;;;;;;5029982;28;20125;-66
2022/04/09 08:22:00;;;;;;;18.30;3.03;;;8.10;99.90;;;;;;5011502;28;20042;-68
2022/04/09 08:24:26;;;;;;;6.80;1.85;;;8.60;99.90;;;;;;5014557;28;20502;-67
2022/04/09 08:26:52;;;;;;;13.50;2.58;;;8.40;99.90;;;;;;5014702;28;20034;-67
2022/04/09 08:29:20;;;;;;;18.58;3.20;;;8.40;99.90;;;;;;5013648;28;20100;-68
2022/04/09 08:31:47;;;;;;;13.85;2.08;;;8.50;99.90;;;;;;5012987;28;20046;-67
2022/04/09 08:34:17;;;;;;;14.13;2.47;;;8.70;99.90;;;;;;5013816;28;20523;-67
2022/04/09 08:36:43;;;;;;;10.43;1.98;;;8.50;99.90;;;;;;5014093;28;20104;-66
2022/04/09 08:39:09;;;;;;;10.30;2.25;;;8.40;99.90;;;;;;5009408;28;20082;-67
2022/04/09 08:41:36;;;;;;;11.95;2.53;;;8.50;99.90;;;;;;5008752;28;20088;-67
2022/04/09 08:44:03;;;;;;;15.80;2.45;;;8.50;99.90;;;;;;5014249;28;20048;-66
2022/04/09 08:46:29;;;;;;;13.63;2.05;;;8.50;99.90;;;;;;5028298;28;20045;-65
2022/04/09 08:48:58;;;;;;;8.30;1.95;;;8.60;99.90;;;;;;5011513;28;20100;-66
2022/04/09 08:51:24;;;;;;;10.13;2.30;;;8.60;99.90;;;;;;4993249;28;20050;-67
2022/04/09 08:53:50;;;;;;;11.65;1.90;;;8.70;99.90;;;;;;5008384;28;20057;-67
2022/04/09 08:56:18;;;;;;;6.97;1.67;;;8.70;99.90;;;;;;5012570;28;20416;-67
2022/04/09 08:58:44;;;;;;;9.93;2.17;;;8.40;99.90;;;;;;5008740;28;20100;-68
2022/04/09 09:01:10;;;;;;;4.38;1.20;;;8.00;99.90;;;;;;5013625;28;20053;-68
2022/04/09 09:03:36;;;;;;;6.30;1.20;;;7.20;99.90;;;;;;5012219;28;20384;-70
2022/04/09 09:06:21;;;;;;;9.32;1.55;;;6.40;99.90;;;;;;5011309;28;20391;-68
2022/04/09 09:08:47;;;;;;;6.30;1.45;;;5.90;99.90;;;;;;5013626;28;20042;-68
2022/04/09 09:11:13;;;;;;;5.97;1.30;;;5.50;99.90;;;;;;5013936;28;20527;-68
2022/04/09 09:13:53;;;;;;;6.15;1.85;;;5.30;99.90;;;;;;5011538;28;20551;-68
2022/04/09 09:16:44;;;;;;;8.73;1.20;;;5.20;99.90;;;;;;4998796;28;20061;-66
2022/04/09 09:19:10;;;;;;;3.47;1.25;;;5.30;99.90;;;;;;4999017;28;20041;-67
2022/04/09 09:21:35;;;;;;;6.82;1.13;;;5.60;99.90;;;;;;5013391;28;20451;-67
2022/04/09 09:24:07;;;;;;;9.63;1.00;;;5.90;99.90;;;;;;5012491;28;20041;-68
2022/04/09 09:26:38;;;;;;;5.90;1.25;;;6.30;99.90;;;;;;5012301;28;20099;-68
2022/04/09 09:29:04;;;;;;;2.88;1.30;;;6.60;99.90;;;;;;5011784;28;20488;-68
2022/04/09 09:31:41;;;;;;;3.88;1.20;;;6.90;99.90;;;;;;5013360;28;20057;-67
2022/04/09 09:34:11;;;;;;;4.03;1.38;;;7.30;99.90;;;;;;5012582;28;20044;-69
2022/04/09 09:36:40;;;;;;;5.60;1.67;;;7.80;99.90;;;;;;5003606;28;20392;-67
2022/04/09 09:39:07;;;;;;;8.52;1.58;;;8.30;99.90;;;;;;4993751;28;20038;-68
2022/04/09 09:41:33;;;;;;;9.30;1.70;;;8.70;99.90;;;;;;5006582;28;20081;-68
2022/04/09 09:44:06;;;;;;;9.40;2.70;;;8.90;99.90;;;;;;5007148;28;20042;-68
2022/04/09 09:46:33;;;;;;;10.88;2.22;;;8.90;99.90;;;;;;4994266;28;20046;-69
2022/04/09 09:48:58;;;;;;;15.40;1.85;;;8.70;99.90;;;;;;5003922;28;20108;-68
2022/04/09 09:51:25;;;;;;;11.15;2.00;;;8.30;99.90;;;;;;5008569;28;20041;-67
2022/04/09 09:54:11;;;;;;;7.93;1.55;;;7.70;99.90;;;;;;5003346;28;20126;-68
2022/04/09 09:56:41;;;;;;;4.63;1.30;;;7.20;99.90;;;;;;4993676;28;20046;-67
2022/04/09 09:59:10;;;;;;;5.93;1.25;;;6.70;99.90;;;;;;5009101;28;20038;-68
2022/04/09 10:01:40;;;;;;;3.65;0.88;;;6.70;99.90;;;;;;5003315;28;20041;-68
2022/04/09 10:04:07;;;;;;;2.55;0.47;;;6.90;99.90;;;;;;5011912;28;20046;-67
2022/04/09 10:06:35;;;;;;;1.67;0.60;;;7.00;99.90;;;;;;5011552;28;20499;-66
2022/04/09 10:09:05;;;;;;;3.47;0.50;;;7.00;99.90;;;;;;5011284;28;20033;-68
2022/04/09 10:11:35;;;;;;;2.40;0.70;;;7.10;99.90;;;;;;5011161;28;20046;-67
2022/04/09 10:14:02;;;;;;;2.28;0.60;;;7.10;99.90;;;;;;5019884;28;20396;-68
2022/04/09 10:16:30;;;;;;;1.40;0.60;;;7.10;99.90;;;;;;5008505;28;20129;-67
2022/04/09 10:19:00;;;;;;;2.10;0.57;;;7.00;99.90;;;;;;5003232;28;20085;-67
2022/04/09 10:21:28;;;;;;;1.55;0.57;;;7.30;99.90;;;;;;5012011;28;20053;-66
2022/04/09 10:23:55;;;;;;;;;;;7.60;99.90;;;;;;4998314;28;20057;-67
2022/04/09 10:26:21;;;;;;;;;;;8.00;99.90;;;;;;5011730;28;19960;-68
2022/04/09 10:28:49;;;;;;;;;;;8.40;99.90;;;;;;5003224;28;20392;-67
2022/04/09 10:31:35;;;;;;;;;;;8.70;99.90;;;;;;5009173;28;19968;-67
2022/04/09 10:34:02;;;;;;;;;;;9.10;99.90;;;;;;5018868;28;19921;-68
2022/04/09 10:36:40;;;;;;;;;;;9.10;99.90;;;;;;5008876;28;19928;-66
2022/04/09 10:39:22;;;;;;;;;;;9.10;99.90;;;;;;5013164;28;19925;-66
2022/04/09 10:41:48;;;;;;;;;;;9.30;99.90;;;;;;5012569;28;19921;-67
2022/04/09 10:44:32;;;;;;;;;;;9.40;99.90;;;;;;5008119;28;19930;-67
2022/04/09 10:47:00;;;;;;;;;;;9.60;99.90;;;;;;4996955;28;20335;-67
2022/04/09 10:49:26;;;;;;;;;;;9.70;99.90;;;;;;5005306;28;19925;-68
2022/04/09 10:52:00;;;;;;;;;;;9.50;99.90;;;;;;5012225;28;20042;-67
2022/04/09 10:54:26;;;;;;;;;;;9.60;99.90;;;;;;5012437;28;19934;-67
2022/04/09 10:56:51;;;;;;;;;;;10.00;99.90;;;;;;5008568;28;20380;-67
2022/04/09 10:59:17;;;;;;;;;;;10.20;99.90;;;;;;4993537;28;20288;-68
2022/04/09 11:01:49;;;;;;;;;;;10.40;99.90;;;;;;5005929;28;20390;-67
2022/04/09 11:04:27;;;;;;;;;;;10.60;99.90;;;;;;5000354;28;19925;-69
2022/04/09 11:07:04;;;;;;;;;;;10.80;99.90;;;;;;4999923;28;19948;-68
2022/04/09 11:09:49;;;;;;;;;;;11.00;99.90;;;;;;5000657;28;20004;-68
2022/04/09 11:12:20;;;;;;;;;;;11.10;99.90;;;;;;5000075;28;19925;-66
2022/04/09 11:14:54;;;;;;;;;;;11.40;99.90;;;;;;5013294;28;20017;-67
2022/04/09 11:17:24;;;;;;;;;;;11.70;99.90;;;;;;5023748;28;19930;-68
2022/04/09 11:19:50;;;;;;;;;;;12.00;99.90;;;;;;5001848;28;20039;-67
2022/04/09 11:22:16;;;;;;;;;;;12.30;99.90;;;;;;5010448;28;19925;-66
2022/04/09 11:24:41;;;;;;;;;;;11.90;99.90;;;;;;5005078;28;20398;-68
2022/04/09 11:27:13;;;;;;;;;;;11.60;99.90;;;;;;5002700;28;19931;-67
2022/04/09 11:29:40;;;;;;;;;;;11.10;99.90;;;;;;5009742;28;19930;-70
2022/04/09 11:32:06;;;;;;;;;;;10.70;99.90;;;;;;5006577;28;19932;-67
2022/04/09 11:34:46;;;;;;;;;;;10.30;99.90;;;;;;4992884;28;20458;-67
2022/04/09 11:37:12;;;;;;;;;;;9.90;99.90;;;;;;5000872;28;19940;-68
2022/04/09 11:39:39;;;;;;;;;;;9.40;99.90;;;;;;5006941;28;19926;-67
2022/04/09 11:42:05;;;;;;;;;;;9.30;99.90;;;;;;5010363;28;19926;-67
2022/04/09 11:44:30;;;;;;;;;;;8.90;99.90;;;;;;5000794;28;19921;-68
2022/04/09 11:46:57;;;;;;;;;;;9.00;99.90;;;;;;5006677;28;19932;-66
2022/04/09 11:49:28;;;;;;;;;;;9.40;99.90;;;;;;4995872;28;19925;-66
2022/04/09 11:51:54;;;;;;;;;;;10.60;99.90;;;;;;4990363;28;19932;-68
2022/04/09 11:54:20;;;;;;;;;;;10.20;99.90;;;;;;5002440;28;20459;-67
2022/04/09 11:56:45;;;;;;;;;;;10.20;99.90;;;;;;5001308;28;20016;-67
2022/04/09 11:59:15;;;;;;;;;;;10.00;99.90;;;;;;4998390;28;19926;-68
2022/04/09 12:01:45;;;;;;;;;;;9.70;99.90;;;;;;5005315;28;20315;-66
2022/04/09 12:04:10;;;;;;;;;;;9.40;99.90;;;;;;5000142;28;19926;-67
2022/04/09 12:06:37;;;;;;;;;;;9.30;99.90;;;;;;5005595;28;19932;-67
2022/04/09 12:09:02;;;;;;;;;;;9.80;99.90;;;;;;5005647;28;19929;-67
2022/04/09 12:11:28;;;;;;;;;;;10.40;99.90;;;;;;4999773;28;19925;-67
2022/04/09 12:13:53;;;;;;;;;;;10.10;99.90;;;;;;5001995;28;19926;-66
2022/04/09 12:16:19;;;;;;;;;;;10.00;99.90;;;;;;5000881;28;19932;-67
2022/04/09 12:18:46;;;;;;;;;;;9.80;99.90;;;;;;5004236;28;19932;-68
2022/04/09 12:21:18;;;;;;;;;;;10.20;99.90;;;;;;5005045;28;20402;-68
2022/04/09 12:23:43;;;;;;;;;;;10.60;99.90;;;;;;5006561;28;19921;-68
2022/04/09 12:26:22;;;;;;;;;;;10.90;99.90;;;;;;5019972;28;20299;-68
2022/04/09 12:29:03;;;;;;;;;;;11.00;99.20;;;;;;5002530;28;19984;-66
2022/04/09 12:31:29;;;;;;;;;;;11.00;99.20;;;;;;4997253;28;19929;-67
2022/04/09 12:33:58;;;;;;;;;;;11.10;99.70;;;;;;5008352;28;19925;-67
2022/04/09 12:36:23;;;;;;;;;;;11.20;99.90;;;;;;5000797;28;19933;-67
2022/04/09 12:38:49;;;;;;;;;;;10.90;99.90;;;;;;5018971;28;19926;-67
2022/04/09 12:41:14;;;;;;;;;;;10.80;99.90;;;;;;5001838;28;20618;-67
2022/04/09 12:43:42;;;;;;;;;;;10.20;99.90;;;;;;5011636;28;19930;-66
2022/04/09 12:46:14;;;;;;;;;;;9.70;99.90;;;;;;4997996;28;20367;-67
2022/04/09 12:48:40;;;;;;;;;;;9.50;99.90;;;;;;5010389;28;20417;-67
2022/04/09 12:51:06;;;;;;;;;;;9.20;99.90;;;;;;5005224;28;19968;-66
2022/04/09 12:53:31;;;;;;;;;;;9.00;99.90;;;;;;4999470;28;20347;-68
2022/04/09 12:55:57;;;;;;;;;;;9.30;99.90;;;;;;5001498;28;19926;-68
2022/04/09 12:58:23;;;;;;;;;;;9.90;99.90;;;;;;5002366;28;19932;-67
2022/04/09 13:00:48;;;;;;;;;;;10.30;99.90;;;;;;4995618;28;19932;-68
2022/04/09 13:03:14;;;;;;;;;;;11.20;99.90;;;;;;4993658;28;20510;-67
2022/04/09 13:05:42;;;;;;;;;;;11.70;99.90;;;;;;4996946;28;19928;-67
2022/04/09 13:08:08;;;;;;;;;;;11.60;99.90;;;;;;5007811;28;20028;-67